createdAt,value
2023-02-14T00:00:24.761Z,63.00
2023-02-14T00:01:40.560Z,62.90
2023-02-14T00:02:42.763Z,63.20
2023-02-14T00:03:45.932Z,63.30
2023-02-14T00:04:48.306Z,63.20
2023-02-14T00:05:51.571Z,63.10
2023-02-14T00:06:53.764Z,63.10
2023-02-14T00:07:58.315Z,63.10
2023-02-14T00:09:00.849Z,63.10
2023-02-14T00:10:04.079Z,63.20
2023-02-14T00:11:06.775Z,63.20
2023-02-14T00:12:09.994Z,63.20
2023-02-14T00:13:12.209Z,63.10
2023-02-14T00:14:29.482Z,63.00
2023-02-14T00:15:32.621Z,63.10
2023-02-14T00:16:34.748Z,63.20
2023-02-14T00:17:37.788Z,63.40
2023-02-14T00:18:58.534Z,63.50
2023-02-14T00:20:01.583Z,63.60
2023-02-14T00:21:04.032Z,63.70
2023-02-14T00:22:07.148Z,63.60
2023-02-14T00:23:10.662Z,63.50
2023-02-14T00:24:16.158Z,63.40
2023-02-14T00:25:18.928Z,63.50
2023-02-14T00:26:22.043Z,63.50
2023-02-14T00:27:24.166Z,63.50
2023-02-14T00:28:27.262Z,63.50
2023-02-14T00:29:31.619Z,63.40
2023-02-14T00:30:36.023Z,63.30
2023-02-14T00:31:39.093Z,63.40
2023-02-14T00:32:43.604Z,63.50
2023-02-14T00:33:45.698Z,63.50
2023-02-14T00:34:48.773Z,63.50
2023-02-14T00:35:50.990Z,63.50
2023-02-14T00:36:54.113Z,63.50
2023-02-14T00:37:57.169Z,63.50
2023-02-14T00:39:02.405Z,63.50
2023-02-14T00:40:09.012Z,63.50
2023-02-14T00:41:19.120Z,63.50
2023-02-14T00:42:22.284Z,63.60
2023-02-14T00:43:24.426Z,63.70
2023-02-14T00:44:27.552Z,63.70
2023-02-14T00:45:29.714Z,63.60
2023-02-14T00:46:33.399Z,63.60
2023-02-14T00:47:36.722Z,63.60
2023-02-14T00:48:38.792Z,64.00
2023-02-14T00:49:41.861Z,64.00
2023-02-14T00:50:46.094Z,64.10
2023-02-14T00:51:49.172Z,64.10
2023-02-14T00:52:51.291Z,64.00
2023-02-14T00:53:55.129Z,64.00
2023-02-14T00:54:59.233Z,64.20
2023-02-14T00:56:02.520Z,64.20
2023-02-14T00:57:04.578Z,64.10
2023-02-14T00:58:07.720Z,64.50
2023-02-14T00:59:10.336Z,64.50
2023-02-14T01:00:14.778Z,64.60
2023-02-14T01:01:19.104Z,64.70
2023-02-14T01:02:22.695Z,64.70
2023-02-14T01:03:25.235Z,64.80
2023-02-14T01:04:28.392Z,64.80
2023-02-14T01:05:30.614Z,64.60
2023-02-14T01:06:33.825Z,64.60
2023-02-14T01:07:35.952Z,65.00
2023-02-14T01:08:39.016Z,65.10
2023-02-14T01:09:42.081Z,65.10
2023-02-14T01:10:45.724Z,65.00
2023-02-14T01:11:49.476Z,64.90
2023-02-14T01:12:51.569Z,64.80
2023-02-14T01:13:57.951Z,64.80
2023-02-14T01:15:00.038Z,64.90
2023-02-14T01:16:07.586Z,64.80
2023-02-14T01:17:10.670Z,64.60
2023-02-14T01:18:13.955Z,64.40
2023-02-14T01:19:17.089Z,64.10
2023-02-14T01:20:19.275Z,63.90
2023-02-14T01:21:24.608Z,64.10
2023-02-14T01:22:26.772Z,64.40
2023-02-14T01:23:29.873Z,64.30
2023-02-14T01:24:33.023Z,64.30
2023-02-14T01:25:38.506Z,64.30
2023-02-14T01:26:43.004Z,64.20
2023-02-14T01:27:45.253Z,64.10
2023-02-14T01:28:48.538Z,64.10
2023-02-14T01:29:50.987Z,63.90
2023-02-14T01:30:54.206Z,63.70
2023-02-14T01:31:57.401Z,63.60
2023-02-14T01:32:59.599Z,63.60
2023-02-14T01:34:02.894Z,63.50
2023-02-14T01:35:05.307Z,63.50
2023-02-14T01:36:17.337Z,63.60
2023-02-14T01:37:20.490Z,63.60
2023-02-14T01:38:22.670Z,63.50
2023-02-14T01:39:25.768Z,63.30
2023-02-14T01:40:27.896Z,63.30
2023-02-14T01:41:34.284Z,63.20
2023-02-14T01:42:37.882Z,63.30
2023-02-14T01:43:57.100Z,63.30
2023-02-14T01:45:02.700Z,63.40
2023-02-14T01:46:06.056Z,63.40
2023-02-14T01:47:11.081Z,63.40
2023-02-14T01:48:15.324Z,63.40
2023-02-14T01:49:23.480Z,63.40
2023-02-14T01:50:30.228Z,63.60
2023-02-14T01:51:35.957Z,63.80
2023-02-14T01:52:45.823Z,63.80
2023-02-14T01:53:49.939Z,63.80
2023-02-14T01:54:57.941Z,63.80
2023-02-14T01:56:09.081Z,63.80
2023-02-14T01:57:16.019Z,63.90
2023-02-14T01:58:24.839Z,63.80
2023-02-14T01:59:34.095Z,63.80
2023-02-14T02:01:08.319Z,63.90
2023-02-14T02:02:11.850Z,64.00
2023-02-14T02:03:15.993Z,64.20
2023-02-14T02:04:25.656Z,64.30
2023-02-14T02:05:28.322Z,64.30
2023-02-14T02:06:37.684Z,64.40
2023-02-14T02:07:40.804Z,64.40
2023-02-14T02:08:51.662Z,64.40
2023-02-14T02:09:58.555Z,64.20
2023-02-14T02:11:01.906Z,63.90
2023-02-14T02:12:05.625Z,63.80
2023-02-14T02:13:14.036Z,63.70
2023-02-14T02:14:22.275Z,63.80
2023-02-14T02:15:28.680Z,64.00
2023-02-14T02:17:02.018Z,64.10
2023-02-14T02:18:14.949Z,64.00
2023-02-14T02:19:54.979Z,63.70
2023-02-14T02:21:39.511Z,63.70
2023-02-14T02:23:26.007Z,63.70
2023-02-14T02:24:46.672Z,63.70
2023-02-14T02:26:27.769Z,63.70
2023-02-14T02:28:23.532Z,63.60
2023-02-14T02:30:16.528Z,63.80
2023-02-14T02:31:56.148Z,64.20
2023-02-14T02:33:55.578Z,64.10
2023-02-14T02:35:34.436Z,63.90
2023-02-14T02:36:57.609Z,63.90
2023-02-14T02:38:18.537Z,63.80
2023-02-14T02:39:36.087Z,63.80
2023-02-14T02:40:53.426Z,64.10
2023-02-14T02:42:06.836Z,64.90
2023-02-14T02:43:22.176Z,64.10
2023-02-14T02:44:39.441Z,64.00
2023-02-14T02:46:09.257Z,63.80
2023-02-14T02:47:23.505Z,63.60
2023-02-14T02:48:34.831Z,63.50
2023-02-14T02:50:05.289Z,63.60
2023-02-14T02:51:52.502Z,63.80
2023-02-14T02:53:07.237Z,64.00
2023-02-14T02:54:17.376Z,63.90
2023-02-14T02:55:28.197Z,64.00
2023-02-14T02:56:46.497Z,64.00
2023-02-14T02:57:52.470Z,64.00
2023-02-14T02:59:01.557Z,63.80
2023-02-14T03:00:07.667Z,63.70
2023-02-14T03:01:16.405Z,63.60
2023-02-14T03:02:25.174Z,63.60
2023-02-14T03:03:50.872Z,63.50
2023-02-14T03:04:59.035Z,63.50
2023-02-14T03:06:02.590Z,63.60
2023-02-14T03:07:27.917Z,64.10
2023-02-14T03:08:30.051Z,63.50
2023-02-14T03:09:55.168Z,63.30
2023-02-14T03:10:58.147Z,63.30
2023-02-14T03:12:22.793Z,63.30
2023-02-14T03:13:54.968Z,63.20
2023-02-14T03:15:11.705Z,63.10
2023-02-14T03:16:37.063Z,63.20
2023-02-14T03:17:55.591Z,64.00
2023-02-14T03:19:44.272Z,63.80
2023-02-14T03:20:55.896Z,63.80
2023-02-14T03:22:05.384Z,63.60
2023-02-14T03:23:21.125Z,63.40
2023-02-14T03:24:29.896Z,63.50
2023-02-14T03:25:44.220Z,63.50
2023-02-14T03:26:50.162Z,63.60
2023-02-14T03:28:00.055Z,63.50
2023-02-14T03:29:15.835Z,63.40
2023-02-14T03:30:35.106Z,63.40
2023-02-14T03:31:52.823Z,63.50
2023-02-14T03:33:03.768Z,63.60
2023-02-14T03:34:13.722Z,63.60
2023-02-14T03:35:22.994Z,63.60
2023-02-14T03:36:32.784Z,63.60
2023-02-14T03:37:43.219Z,63.50
2023-02-14T03:38:56.861Z,63.60
2023-02-14T03:40:08.398Z,63.80
2023-02-14T03:41:19.040Z,63.80
2023-02-14T03:42:26.390Z,63.80
2023-02-14T03:43:34.008Z,63.80
2023-02-14T03:44:40.180Z,63.60
2023-02-14T03:45:51.527Z,63.50
2023-02-14T03:46:59.387Z,63.40
2023-02-14T03:48:09.597Z,63.20
2023-02-14T03:49:20.670Z,63.10
2023-02-14T03:50:23.779Z,63.10
2023-02-14T03:51:34.227Z,63.20
2023-02-14T03:52:40.071Z,63.40
2023-02-14T03:53:50.672Z,63.40
2023-02-14T03:54:58.822Z,63.40
2023-02-14T03:56:08.759Z,63.40
2023-02-14T03:57:20.895Z,63.40
2023-02-14T03:58:28.356Z,63.40
2023-02-14T03:59:31.509Z,63.30
2023-02-14T04:00:41.144Z,63.30
2023-02-14T04:01:53.727Z,63.20
2023-02-14T04:03:04.434Z,63.40
2023-02-14T04:04:09.509Z,63.30
2023-02-14T04:05:18.264Z,63.80
2023-02-14T04:06:21.233Z,63.20
2023-02-14T04:07:25.579Z,63.10
2023-02-14T04:08:29.891Z,62.90
2023-02-14T04:09:34.361Z,62.90
2023-02-14T04:10:37.474Z,62.90
2023-02-14T04:11:41.022Z,63.30
2023-02-14T04:12:43.316Z,63.60
2023-02-14T04:13:46.478Z,63.60
2023-02-14T04:14:48.568Z,63.50
2023-02-14T04:15:51.715Z,63.40
2023-02-14T04:17:12.131Z,63.70
2023-02-14T04:18:32.723Z,63.40
2023-02-14T04:19:34.839Z,63.30
2023-02-14T04:20:38.148Z,63.30
2023-02-14T04:21:40.358Z,63.30
2023-02-14T04:22:43.626Z,63.90
2023-02-14T04:23:46.025Z,63.30
2023-02-14T04:24:50.499Z,63.30
2023-02-14T04:25:52.665Z,63.40
2023-02-14T04:27:10.258Z,63.30
2023-02-14T04:28:13.914Z,63.30
2023-02-14T04:29:16.028Z,63.30
2023-02-14T04:30:21.008Z,63.30
2023-02-14T04:31:23.635Z,63.30
2023-02-14T04:32:27.040Z,63.30
2023-02-14T04:33:29.409Z,63.30
2023-02-14T04:34:32.491Z,63.30
2023-02-14T04:35:35.918Z,63.30
2023-02-14T04:36:38.114Z,63.30
2023-02-14T04:37:41.258Z,63.20
2023-02-14T04:38:44.617Z,63.40
2023-02-14T04:39:46.935Z,63.70
2023-02-14T04:40:52.070Z,63.80
2023-02-14T04:41:54.239Z,63.70
2023-02-14T04:42:57.957Z,63.60
2023-02-14T04:44:00.100Z,63.50
2023-02-14T04:45:04.413Z,63.40
2023-02-14T04:46:06.754Z,63.40
2023-02-14T04:47:10.569Z,63.50
2023-02-14T04:48:12.758Z,63.50
2023-02-14T04:49:16.074Z,63.50
2023-02-14T04:50:18.332Z,63.60
2023-02-14T04:51:21.480Z,63.50
2023-02-14T04:52:23.635Z,63.50
2023-02-14T04:53:26.749Z,63.40
2023-02-14T04:54:29.599Z,63.40
2023-02-14T04:55:32.754Z,63.30
2023-02-14T04:56:36.344Z,63.20
2023-02-14T04:57:39.514Z,63.30
2023-02-14T04:58:41.660Z,63.30
2023-02-14T04:59:44.818Z,63.40
2023-02-14T05:00:46.992Z,63.30
2023-02-14T05:01:50.369Z,63.50
2023-02-14T05:02:52.582Z,63.60
2023-02-14T05:03:55.751Z,63.60
2023-02-14T05:04:57.917Z,63.50
2023-02-14T05:06:01.104Z,63.50
2023-02-14T05:07:04.358Z,63.40
2023-02-14T05:08:07.535Z,63.40
2023-02-14T05:09:10.036Z,63.70
2023-02-14T05:10:13.284Z,63.80
2023-02-14T05:11:15.632Z,63.80
2023-02-14T05:12:20.246Z,63.80
2023-02-14T05:13:22.410Z,63.70
2023-02-14T05:14:25.571Z,63.80
2023-02-14T05:15:27.801Z,63.80
2023-02-14T05:16:31.065Z,63.70
2023-02-14T05:17:33.711Z,63.60
2023-02-14T05:18:36.860Z,63.60
2023-02-14T05:19:38.998Z,63.70
2023-02-14T05:20:42.256Z,63.70
2023-02-14T05:21:44.461Z,63.70
2023-02-14T05:22:47.535Z,63.70
2023-02-14T05:23:49.705Z,63.70
2023-02-14T05:24:52.896Z,63.70
2023-02-14T05:25:55.318Z,63.70
2023-02-14T05:26:58.561Z,64.20
2023-02-14T05:28:02.065Z,63.60
2023-02-14T05:29:05.194Z,63.50
2023-02-14T05:30:09.890Z,63.50
2023-02-14T05:31:13.347Z,63.50
2023-02-14T05:32:15.877Z,63.60
2023-02-14T05:33:19.148Z,63.70
2023-02-14T05:34:21.890Z,63.70
2023-02-14T05:35:25.378Z,63.80
2023-02-14T05:36:27.582Z,63.80
2023-02-14T05:37:30.728Z,63.80
2023-02-14T05:38:33.540Z,64.00
2023-02-14T05:39:36.702Z,64.20
2023-02-14T05:40:39.029Z,64.40
2023-02-14T05:41:42.320Z,64.20
2023-02-14T05:42:44.637Z,64.30
2023-02-14T05:43:49.158Z,64.50
2023-02-14T05:44:51.363Z,64.50
2023-02-14T05:45:55.317Z,64.50
2023-02-14T05:46:57.476Z,64.60
2023-02-14T05:48:00.665Z,64.50
2023-02-14T05:49:03.049Z,64.50
2023-02-14T05:50:07.878Z,64.50
2023-02-14T05:51:10.860Z,64.50
2023-02-14T05:52:14.154Z,64.40
2023-02-14T05:53:16.781Z,64.40
2023-02-14T05:54:19.960Z,64.40
2023-02-14T05:55:22.159Z,64.20
2023-02-14T05:56:25.277Z,64.10
2023-02-14T05:57:27.436Z,64.20
2023-02-14T05:58:30.628Z,64.20
2023-02-14T05:59:34.131Z,64.30
2023-02-14T06:00:38.804Z,64.40
2023-02-14T06:01:43.102Z,64.40
2023-02-14T06:02:45.223Z,64.40
2023-02-14T06:03:48.496Z,64.50
2023-02-14T06:04:51.032Z,64.50
2023-02-14T06:05:54.381Z,64.60
2023-02-14T06:06:57.723Z,64.70
2023-02-14T06:08:01.461Z,64.80
2023-02-14T06:09:04.797Z,64.90
2023-02-14T06:10:09.949Z,65.20
2023-02-14T06:11:13.180Z,65.50
2023-02-14T06:12:15.346Z,65.70
2023-02-14T06:13:18.586Z,65.90
2023-02-14T06:14:20.801Z,65.90
2023-02-14T06:15:25.312Z,66.00
2023-02-14T06:16:27.500Z,66.10
2023-02-14T06:17:30.777Z,66.00
2023-02-14T06:18:34.059Z,66.00
2023-02-14T06:19:36.491Z,66.10
2023-02-14T06:20:39.670Z,66.00
2023-02-14T06:21:41.899Z,66.00
2023-02-14T06:22:45.058Z,66.10
2023-02-14T06:23:48.240Z,66.10
2023-02-14T06:24:50.400Z,66.10
2023-02-14T06:25:53.639Z,66.20
2023-02-14T06:26:55.796Z,66.10
2023-02-14T06:27:59.740Z,66.20
2023-02-14T06:29:03.806Z,66.30
2023-02-14T06:30:08.311Z,66.30
2023-02-14T06:31:18.604Z,66.30
2023-02-14T06:32:20.760Z,66.30
2023-02-14T06:33:23.931Z,66.20
2023-02-14T06:34:27.072Z,66.20
2023-02-14T06:35:30.257Z,66.30
2023-02-14T06:36:32.420Z,66.40
2023-02-14T06:37:35.895Z,66.40
2023-02-14T06:38:38.060Z,66.40
2023-02-14T06:39:41.596Z,66.50
2023-02-14T06:40:43.750Z,66.60
2023-02-14T06:41:46.894Z,66.60
2023-02-14T06:42:49.986Z,66.60
2023-02-14T06:43:52.201Z,66.60
2023-02-14T06:44:55.556Z,66.50
2023-02-14T06:45:59.196Z,66.60
2023-02-14T06:47:02.845Z,66.70
2023-02-14T06:48:06.173Z,66.70
2023-02-14T06:49:09.934Z,66.90
2023-02-14T06:50:13.440Z,67.00
2023-02-14T06:51:15.692Z,67.10
2023-02-14T06:52:18.855Z,67.10
2023-02-14T06:53:22.823Z,67.20
2023-02-14T06:54:25.051Z,67.30
2023-02-14T06:55:28.288Z,67.30
2023-02-14T06:56:30.472Z,67.40
2023-02-14T06:57:33.599Z,67.40
2023-02-14T06:58:36.920Z,67.30
2023-02-14T06:59:40.080Z,66.80
2023-02-14T07:00:43.309Z,67.00
2023-02-14T07:01:46.588Z,67.20
2023-02-14T07:02:51.168Z,67.30
2023-02-14T07:03:53.440Z,66.70
2023-02-14T07:04:56.546Z,67.00
2023-02-14T07:05:59.140Z,67.10
2023-02-14T07:07:02.501Z,67.10
2023-02-14T07:08:07.174Z,67.00
2023-02-14T07:09:09.386Z,66.70
2023-02-14T07:10:13.313Z,66.60
2023-02-14T07:11:15.409Z,66.60
2023-02-14T07:12:18.580Z,66.60
2023-02-14T07:13:21.789Z,66.60
2023-02-14T07:14:25.127Z,66.50
2023-02-14T07:15:27.259Z,66.40
2023-02-14T07:16:30.350Z,65.70
2023-02-14T07:17:33.437Z,65.70
2023-02-14T07:18:36.911Z,65.60
2023-02-14T07:19:40.027Z,65.50
2023-02-14T07:20:42.201Z,65.50
2023-02-14T07:21:45.322Z,65.50
2023-02-14T07:22:47.466Z,65.50
2023-02-14T07:23:50.589Z,65.50
2023-02-14T07:24:52.703Z,65.40
2023-02-14T07:25:56.452Z,65.20
2023-02-14T07:26:58.552Z,65.30
2023-02-14T07:28:02.118Z,65.40
2023-02-14T07:29:05.071Z,65.50
2023-02-14T07:30:10.574Z,65.40
2023-02-14T07:31:13.028Z,65.30
2023-02-14T07:32:16.405Z,65.30
2023-02-14T07:33:18.659Z,65.30
2023-02-14T07:34:23.163Z,65.30
2023-02-14T07:35:25.518Z,65.10
2023-02-14T07:36:29.024Z,65.20
2023-02-14T07:37:32.420Z,65.20
2023-02-14T07:38:36.176Z,65.10
2023-02-14T07:39:39.340Z,65.40
2023-02-14T07:40:42.492Z,65.50
2023-02-14T07:41:44.634Z,65.20
2023-02-14T07:42:55.118Z,65.10
2023-02-14T07:43:58.205Z,65.30
2023-02-14T07:45:09.474Z,65.20
2023-02-14T07:46:22.700Z,65.20
2023-02-14T07:47:25.162Z,65.10
2023-02-14T07:48:31.030Z,65.00
2023-02-14T07:49:37.508Z,65.00
2023-02-14T07:50:39.709Z,64.80
2023-02-14T07:51:42.884Z,64.60
2023-02-14T07:52:45.454Z,64.70
2023-02-14T07:53:48.657Z,64.90
2023-02-14T07:54:51.840Z,64.80
2023-02-14T07:55:55.335Z,64.80
2023-02-14T07:56:58.424Z,64.90
2023-02-14T07:58:00.731Z,64.80
2023-02-14T07:59:03.891Z,65.00
2023-02-14T08:00:07.585Z,65.00
2023-02-14T08:01:11.451Z,65.10
2023-02-14T08:02:14.605Z,65.20
2023-02-14T08:03:16.961Z,65.20
2023-02-14T08:04:20.041Z,65.10
2023-02-14T08:05:24.980Z,65.10
2023-02-14T08:06:28.048Z,65.30
2023-02-14T08:07:31.557Z,65.40
2023-02-14T08:08:34.847Z,65.40
2023-02-14T08:09:38.049Z,65.50
2023-02-14T08:10:40.268Z,65.50
2023-02-14T08:12:00.802Z,65.50
2023-02-14T08:13:03.942Z,65.50
2023-02-14T08:14:06.739Z,66.10
2023-02-14T08:15:27.706Z,65.70
2023-02-14T08:16:32.404Z,65.90
2023-02-14T08:17:36.606Z,65.80
2023-02-14T08:18:42.062Z,65.70
2023-02-14T08:19:45.246Z,66.30
2023-02-14T08:20:50.014Z,65.70
2023-02-14T08:21:53.396Z,65.70
2023-02-14T08:22:55.612Z,65.60
2023-02-14T08:23:59.478Z,65.70
2023-02-14T08:25:01.670Z,65.60
2023-02-14T08:26:05.522Z,65.50
2023-02-14T08:27:07.747Z,65.40
2023-02-14T08:28:11.151Z,65.60
2023-02-14T08:29:16.791Z,65.40
2023-02-14T08:30:20.293Z,65.40
2023-02-14T08:31:35.144Z,65.50
2023-02-14T08:32:38.429Z,65.00
2023-02-14T08:33:43.393Z,65.30
2023-02-14T08:34:45.638Z,65.20
2023-02-14T08:35:50.296Z,65.20
2023-02-14T08:36:52.465Z,65.30
2023-02-14T08:37:55.565Z,65.40
2023-02-14T08:38:59.310Z,65.40
2023-02-14T08:40:02.494Z,65.30
2023-02-14T08:41:08.572Z,65.20
2023-02-14T08:42:12.943Z,65.20
2023-02-14T08:43:16.162Z,65.20
2023-02-14T08:44:19.266Z,64.90
2023-02-14T08:45:21.861Z,64.90
2023-02-14T08:46:25.147Z,65.00
2023-02-14T08:47:27.411Z,64.70
2023-02-14T08:48:30.607Z,65.10
2023-02-14T08:49:32.973Z,65.30
2023-02-14T08:50:37.387Z,65.40
2023-02-14T08:51:51.804Z,66.10
2023-02-14T08:52:53.975Z,65.40
2023-02-14T08:53:57.145Z,65.70
2023-02-14T08:54:59.546Z,66.10
2023-02-14T08:56:04.822Z,66.40
2023-02-14T08:57:07.009Z,66.50
2023-02-14T08:58:10.235Z,66.20
2023-02-14T08:59:13.373Z,66.70
2023-02-14T09:00:16.479Z,66.70
2023-02-14T09:01:19.931Z,66.60
2023-02-14T09:02:22.184Z,65.80
2023-02-14T09:03:26.077Z,66.20
2023-02-14T09:04:28.310Z,66.60
2023-02-14T09:05:31.640Z,66.30
2023-02-14T09:06:38.001Z,66.30
2023-02-14T09:07:42.509Z,66.50
2023-02-14T09:08:46.618Z,66.60
2023-02-14T09:09:49.871Z,66.70
2023-02-14T09:10:53.329Z,66.70
2023-02-14T09:11:56.235Z,66.70
2023-02-14T09:12:59.429Z,66.50
2023-02-14T09:14:02.757Z,67.00
2023-02-14T09:15:06.613Z,67.00
2023-02-14T09:16:10.961Z,66.90
2023-02-14T09:17:15.347Z,67.20
2023-02-14T09:18:18.526Z,66.20
2023-02-14T09:19:20.922Z,67.00
2023-02-14T09:20:24.278Z,67.30
2023-02-14T09:21:30.483Z,66.30
2023-02-14T09:22:33.360Z,67.10
2023-02-14T09:23:38.087Z,67.00
2023-02-14T09:24:41.469Z,67.00
2023-02-14T09:25:44.650Z,67.00
2023-02-14T09:26:48.001Z,67.00
2023-02-14T09:27:51.187Z,66.70
2023-02-14T09:28:54.503Z,67.00
2023-02-14T09:29:57.662Z,66.50
2023-02-14T09:31:08.993Z,66.40
2023-02-14T09:32:12.307Z,67.00
2023-02-14T09:33:15.433Z,66.50
2023-02-14T09:34:36.111Z,67.10
2023-02-14T09:35:39.277Z,67.30
2023-02-14T09:36:59.821Z,67.00
2023-02-14T09:38:03.220Z,66.80
2023-02-14T09:39:06.701Z,66.70
2023-02-14T09:40:14.500Z,67.00
2023-02-14T09:41:49.366Z,67.30
2023-02-14T09:43:03.885Z,66.60
2023-02-14T09:44:14.314Z,67.00
2023-02-14T09:45:22.324Z,66.60
2023-02-14T09:46:29.959Z,66.00
2023-02-14T09:47:41.712Z,66.00
2023-02-14T09:48:49.086Z,66.10
2023-02-14T09:49:54.423Z,66.30
2023-02-14T09:51:03.335Z,66.40
2023-02-14T09:52:10.693Z,66.30
2023-02-14T09:53:26.254Z,66.40
2023-02-14T09:54:33.498Z,66.00
2023-02-14T09:55:44.933Z,66.10
2023-02-14T09:56:59.833Z,66.20
2023-02-14T09:58:12.294Z,66.30
2023-02-14T09:59:34.278Z,66.40
2023-02-14T10:00:48.163Z,66.70
2023-02-14T10:01:58.321Z,66.40
2023-02-14T10:03:16.131Z,66.30
2023-02-14T10:04:30.235Z,66.30
2023-02-14T10:05:39.573Z,66.40
2023-02-14T10:06:55.764Z,66.40
2023-02-14T10:08:08.530Z,66.60
2023-02-14T10:09:38.450Z,66.30
2023-02-14T10:10:44.473Z,66.00
2023-02-14T10:11:49.941Z,65.80
2023-02-14T10:13:00.990Z,66.10
2023-02-14T10:14:12.940Z,65.50
2023-02-14T10:15:21.619Z,66.20
2023-02-14T10:16:28.357Z,65.90
2023-02-14T10:17:43.277Z,66.30
2023-02-14T10:18:55.320Z,66.50
2023-02-14T10:20:03.871Z,66.50
2023-02-14T10:21:13.265Z,66.60
2023-02-14T10:22:20.000Z,66.50
2023-02-14T10:23:31.334Z,66.60
2023-02-14T10:24:43.268Z,66.10
2023-02-14T10:25:54.993Z,66.00
2023-02-14T10:27:11.457Z,66.40
2023-02-14T10:28:17.164Z,66.60
2023-02-14T10:29:23.372Z,66.00
2023-02-14T10:30:27.073Z,66.10
2023-02-14T10:31:44.629Z,65.60
2023-02-14T10:32:50.743Z,65.60
2023-02-14T10:33:58.064Z,65.90
2023-02-14T10:35:12.711Z,66.10
2023-02-14T10:36:35.384Z,66.00
2023-02-14T10:37:56.106Z,65.90
2023-02-14T10:39:11.481Z,66.00
2023-02-14T10:40:42.263Z,65.90
2023-02-14T10:41:54.126Z,66.50
2023-02-14T10:43:06.520Z,66.90
2023-02-14T10:44:32.195Z,67.00
2023-02-14T10:45:42.878Z,67.10
2023-02-14T10:46:55.207Z,67.20
2023-02-14T10:48:13.265Z,66.70
2023-02-14T10:49:33.458Z,65.70
2023-02-14T10:50:48.005Z,65.70
2023-02-14T10:54:48.276Z,65.10
2023-02-14T10:55:58.922Z,65.00
2023-02-14T10:57:06.241Z,65.00
2023-02-14T10:58:16.018Z,65.10
2023-02-14T10:59:26.977Z,65.20
2023-02-14T11:00:36.234Z,65.50
2023-02-14T11:01:39.484Z,65.70
2023-02-14T11:02:47.652Z,65.40
2023-02-14T11:03:58.464Z,65.70
2023-02-14T11:05:03.405Z,65.70
2023-02-14T11:06:07.174Z,65.80
2023-02-14T11:07:14.835Z,66.40
2023-02-14T11:08:26.292Z,65.80
2023-02-14T11:09:30.041Z,66.00
2023-02-14T11:10:35.714Z,66.20
2023-02-14T11:11:45.349Z,66.60
2023-02-14T11:12:48.495Z,67.20
2023-02-14T11:13:51.952Z,67.40
2023-02-14T11:15:11.877Z,67.70
2023-02-14T11:16:28.916Z,67.90
2023-02-14T11:17:34.837Z,67.80
2023-02-14T11:18:42.126Z,67.70
2023-02-14T11:19:58.959Z,67.70
2023-02-14T11:21:05.161Z,67.70
2023-02-14T11:22:10.212Z,67.80
2023-02-14T11:23:21.928Z,67.60
2023-02-14T11:24:30.291Z,67.70
2023-02-14T11:25:35.622Z,67.70
2023-02-14T11:26:40.371Z,67.50
2023-02-14T11:27:49.850Z,67.40
2023-02-14T11:28:59.381Z,67.30
2023-02-14T11:30:02.621Z,67.10
2023-02-14T11:31:06.050Z,67.20
2023-02-14T11:32:13.969Z,67.30
2023-02-14T11:33:34.978Z,67.10
2023-02-14T11:34:41.958Z,67.20
2023-02-14T11:35:53.125Z,67.20
2023-02-14T11:36:56.336Z,67.00
2023-02-14T11:37:59.952Z,66.90
2023-02-14T11:39:17.567Z,66.90
2023-02-14T11:40:30.734Z,66.80
2023-02-14T11:41:50.715Z,66.90
2023-02-14T11:43:02.232Z,67.20
2023-02-14T11:44:22.173Z,67.20
2023-02-14T11:45:34.556Z,67.50
2023-02-14T11:46:52.252Z,67.70
2023-02-14T11:48:11.022Z,67.90
2023-02-14T11:49:28.278Z,67.80
2023-02-14T11:50:31.549Z,67.80
2023-02-14T11:51:37.662Z,67.50
2023-02-14T11:52:52.570Z,67.00
2023-02-14T11:54:00.792Z,66.80
2023-02-14T11:55:04.351Z,66.60
2023-02-14T11:56:06.927Z,66.20
2023-02-14T11:57:18.751Z,66.30
2023-02-14T11:58:33.740Z,65.90
2023-02-14T11:59:43.092Z,65.50
2023-02-14T12:00:54.035Z,65.30
2023-02-14T12:02:02.400Z,66.10
2023-02-14T12:03:08.274Z,65.00
2023-02-14T12:04:21.014Z,64.80
2023-02-14T12:05:29.276Z,64.60
2023-02-14T12:06:36.757Z,64.40
2023-02-14T12:07:43.912Z,64.20
2023-02-14T12:08:47.312Z,63.90
2023-02-14T12:10:18.423Z,64.00
2023-02-14T12:11:23.863Z,63.70
2023-02-14T12:12:27.522Z,63.40
2023-02-14T12:13:30.725Z,63.50
2023-02-14T12:14:36.930Z,63.50
2023-02-14T12:15:50.426Z,63.20
2023-02-14T12:17:01.709Z,63.20
2023-02-14T12:18:37.264Z,63.10
2023-02-14T12:19:50.196Z,63.30
2023-02-14T12:21:01.012Z,63.20
2023-02-14T12:22:07.128Z,63.00
2023-02-14T12:23:19.602Z,63.00
2023-02-14T12:24:31.652Z,63.00
2023-02-14T12:25:46.310Z,62.90
2023-02-14T12:26:59.429Z,62.90
2023-02-14T12:28:13.509Z,62.50
2023-02-14T12:29:26.236Z,62.80
2023-02-14T12:30:33.017Z,62.90
2023-02-14T12:31:36.251Z,62.50
2023-02-14T12:32:48.393Z,62.30
2023-02-14T12:33:51.670Z,62.80
2023-02-14T12:35:03.079Z,62.80
2023-02-14T12:36:18.143Z,62.40
2023-02-14T12:37:35.703Z,62.70
2023-02-14T12:38:49.585Z,62.80
2023-02-14T12:40:11.877Z,62.60
2023-02-14T12:41:30.877Z,62.90
2023-02-14T12:43:00.703Z,62.80
2023-02-14T12:44:14.598Z,62.90
2023-02-14T12:45:27.130Z,62.90
2023-02-14T12:47:08.792Z,62.90
2023-02-14T12:48:24.451Z,62.40
2023-02-14T12:50:08.042Z,62.40
2023-02-14T12:51:19.948Z,62.00
2023-02-14T12:52:44.065Z,62.20
2023-02-14T12:54:18.980Z,61.40
2023-02-14T12:55:37.113Z,61.50
2023-02-14T12:56:52.050Z,61.60
2023-02-14T12:58:02.012Z,61.70
2023-02-14T12:59:23.618Z,61.70
2023-02-14T13:00:43.506Z,61.40
2023-02-14T13:02:08.239Z,61.30
2023-02-14T13:03:45.740Z,61.10
2023-02-14T13:05:07.648Z,61.00
2023-02-14T13:06:24.983Z,60.80
2023-02-14T13:07:48.529Z,61.00
2023-02-14T13:09:10.464Z,61.10
2023-02-14T13:10:24.767Z,61.00
2023-02-14T13:11:38.061Z,60.80
2023-02-14T13:12:48.155Z,60.90
2023-02-14T13:14:04.492Z,60.90
2023-02-14T13:15:25.683Z,60.80
2023-02-14T13:16:39.332Z,60.70
2023-02-14T13:17:49.333Z,60.30
2023-02-14T13:19:00.951Z,60.60
2023-02-14T13:20:28.604Z,60.60
2023-02-14T13:21:38.549Z,60.80
2023-02-14T13:22:44.197Z,60.60
2023-02-14T13:23:52.908Z,60.10
2023-02-14T13:25:01.041Z,60.40
2023-02-14T13:26:11.375Z,60.30
2023-02-14T13:27:22.232Z,60.60
2023-02-14T13:28:28.385Z,60.90
2023-02-14T13:29:43.086Z,60.90
2023-02-14T13:30:47.668Z,60.60
2023-02-14T13:31:52.874Z,60.50
2023-02-14T13:33:01.963Z,60.10
2023-02-14T13:34:17.535Z,60.40
2023-02-14T13:35:23.926Z,60.70
2023-02-14T13:36:29.732Z,60.20
2023-02-14T13:37:34.795Z,60.30
2023-02-14T13:38:45.081Z,60.50
2023-02-14T13:39:54.910Z,60.40
2023-02-14T13:41:01.798Z,60.30
2023-02-14T13:42:06.452Z,59.80
2023-02-14T13:43:09.817Z,59.90
2023-02-14T13:44:13.011Z,60.20
2023-02-14T13:45:53.924Z,60.20
2023-02-14T13:46:57.177Z,60.70
2023-02-14T13:48:05.519Z,60.20
2023-02-14T13:49:27.881Z,60.30
2023-02-14T13:50:30.113Z,60.30
2023-02-14T13:51:47.740Z,60.40
2023-02-14T13:52:50.920Z,60.10
2023-02-14T13:53:53.111Z,59.90
2023-02-14T13:55:04.394Z,59.70
2023-02-14T13:56:33.436Z,59.80
2023-02-14T13:57:41.326Z,59.90
2023-02-14T13:58:51.009Z,59.90
2023-02-14T14:00:27.948Z,60.10
2023-02-14T14:01:34.815Z,60.10
2023-02-14T14:02:45.723Z,60.00
2023-02-14T14:03:59.369Z,59.90
2023-02-14T14:05:50.436Z,59.70
2023-02-14T14:07:22.074Z,59.50
2023-02-14T14:08:43.582Z,59.70
2023-02-14T14:10:04.709Z,59.70
2023-02-14T14:11:12.752Z,59.70
2023-02-14T14:12:42.332Z,59.70
2023-02-14T14:14:03.332Z,59.80
2023-02-14T14:15:21.435Z,59.80
2023-02-14T14:16:29.176Z,59.70
2023-02-14T14:17:34.859Z,59.80
2023-02-14T14:18:43.891Z,59.80
2023-02-14T14:19:47.843Z,59.50
2023-02-14T14:20:52.486Z,59.60
2023-02-14T14:22:04.326Z,59.70
2023-02-14T14:23:32.711Z,59.90
2023-02-14T14:24:37.312Z,60.00
2023-02-14T14:25:42.600Z,60.10
2023-02-14T14:26:47.930Z,60.30
2023-02-14T14:27:52.497Z,60.30
2023-02-14T14:28:54.944Z,60.50
2023-02-14T14:30:00.560Z,60.70
2023-02-14T14:31:03.900Z,60.80
2023-02-14T14:32:11.225Z,60.80
2023-02-14T14:33:16.070Z,60.80
2023-02-14T14:34:21.068Z,60.70
2023-02-14T14:35:25.991Z,60.80
2023-02-14T14:36:28.569Z,61.10
2023-02-14T14:37:34.424Z,61.40
2023-02-14T14:38:50.049Z,61.20
2023-02-14T14:39:55.186Z,61.30
2023-02-14T14:40:58.928Z,61.30